createdAt,value
2023-03-12T00:00:35.341Z,0.65
2023-03-12T00:03:23.619Z,0.68
2023-03-12T00:05:52.178Z,0.66
2023-03-12T00:08:21.764Z,0.86
2023-03-12T00:10:50.208Z,0.54
2023-03-12T00:13:18.458Z,0.84
2023-03-12T00:15:46.944Z,1.30
2023-03-12T00:18:15.299Z,0.86
2023-03-12T00:20:43.884Z,0.87
2023-03-12T00:23:12.157Z,0.93
2023-03-12T00:25:44.228Z,1.25
2023-03-12T00:28:14.523Z,0.94
2023-03-12T00:30:43.942Z,0.84
2023-03-12T00:33:12.406Z,0.88
2023-03-12T00:35:40.913Z,0.77
2023-03-12T00:38:09.098Z,0.84
2023-03-12T00:40:39.365Z,0.85
2023-03-12T00:43:08.959Z,1.13
2023-03-12T00:45:37.663Z,0.90
2023-03-12T00:48:06.133Z,0.95
2023-03-12T00:50:34.656Z,0.89
2023-03-12T00:53:02.866Z,1.00
2023-03-12T00:55:31.826Z,1.05
2023-03-12T00:58:00.038Z,0.93
2023-03-12T01:00:30.045Z,1.27
2023-03-12T01:02:58.283Z,0.98
2023-03-12T01:05:26.775Z,0.88
2023-03-12T01:07:55.219Z,0.96
2023-03-12T01:10:23.896Z,1.04
2023-03-12T01:12:52.168Z,0.94
2023-03-12T01:15:20.675Z,0.94
2023-03-12T01:17:50.301Z,1.02
2023-03-12T01:20:18.934Z,0.75
2023-03-12T01:22:47.154Z,0.67
2023-03-12T01:25:15.886Z,0.62
2023-03-12T01:27:44.130Z,0.60
2023-03-12T01:30:13.802Z,0.62
2023-03-12T01:32:42.132Z,0.40
2023-03-12T01:35:12.576Z,0.53
2023-03-12T01:37:40.795Z,0.23
2023-03-12T01:40:12.574Z,0.34
2023-03-12T01:42:40.826Z,0.09
2023-03-12T01:45:42.710Z,0.62
2023-03-12T01:48:10.713Z,0.76
2023-03-12T01:50:40.582Z,0.30
2023-03-12T01:53:09.014Z,-0.13
2023-03-12T01:55:37.619Z,-0.11
2023-03-12T01:58:07.031Z,-0.01
2023-03-12T02:00:35.906Z,-0.22
2023-03-12T02:03:07.720Z,-0.10
2023-03-12T02:05:48.235Z,-0.09
2023-03-12T02:08:18.470Z,-0.14
2023-03-12T02:10:47.962Z,-0.25
2023-03-12T02:13:16.246Z,-0.58
2023-03-12T02:15:44.767Z,-0.58
2023-03-12T02:18:16.644Z,-0.26
2023-03-12T02:20:52.276Z,-0.21
2023-03-12T02:23:25.378Z,-0.45
2023-03-12T02:25:55.709Z,-0.42
2023-03-12T02:28:27.405Z,-0.45
2023-03-12T02:31:00.089Z,-0.40
2023-03-12T02:33:28.593Z,-0.79
2023-03-12T02:35:57.846Z,-0.86
2023-03-12T02:38:39.186Z,-0.35
2023-03-12T02:41:13.033Z,-0.60
2023-03-12T02:43:42.485Z,-0.76
2023-03-12T02:46:11.108Z,-1.00
2023-03-12T02:48:39.347Z,-1.08
2023-03-12T02:51:07.878Z,-1.09
2023-03-12T02:53:36.100Z,-1.13
2023-03-12T02:56:05.345Z,-1.04
2023-03-12T02:58:34.910Z,-0.84
2023-03-12T03:01:03.434Z,-1.17
2023-03-12T03:03:31.832Z,-1.21
2023-03-12T03:06:00.283Z,-1.21
2023-03-12T03:08:28.552Z,-1.20
2023-03-12T03:10:57.070Z,-1.18
2023-03-12T03:13:25.477Z,-1.24
2023-03-12T03:15:57.770Z,-0.93
2023-03-12T03:18:26.252Z,-1.27
2023-03-12T03:20:58.341Z,-0.86
2023-03-12T03:23:26.590Z,-1.28
2023-03-12T03:25:55.819Z,-1.17
2023-03-12T03:28:25.921Z,-1.16
2023-03-12T03:30:58.350Z,-1.00
2023-03-12T03:33:26.793Z,-1.32
2023-03-12T03:35:55.607Z,-1.29
2023-03-12T03:38:24.033Z,-1.25
2023-03-12T03:40:52.544Z,-1.34
2023-03-12T03:43:21.111Z,-1.32
2023-03-12T03:45:49.621Z,-1.43
2023-03-12T03:48:19.261Z,-1.18
2023-03-12T03:50:47.982Z,-1.41
2023-03-12T03:53:16.251Z,-1.53
2023-03-12T03:55:44.831Z,-1.43
2023-03-12T03:58:13.292Z,-1.49
2023-03-12T04:00:41.796Z,-1.46
2023-03-12T04:03:10.080Z,-1.52
2023-03-12T04:05:40.618Z,-1.24
2023-03-12T04:08:09.198Z,-1.58
2023-03-12T04:10:38.616Z,-1.29
2023-03-12T04:13:06.852Z,-1.59
2023-03-12T04:15:35.709Z,-1.51
2023-03-12T04:18:04.048Z,-1.55
2023-03-12T04:20:32.603Z,-1.57
2023-03-12T04:23:02.250Z,-1.31
2023-03-12T04:25:30.678Z,-1.55
2023-03-12T04:27:58.828Z,-1.59
2023-03-12T04:30:27.389Z,-1.59
2023-03-12T04:32:56.146Z,-1.48
2023-03-12T04:35:26.392Z,-1.62
2023-03-12T04:37:54.552Z,-1.58
2023-03-12T04:40:24.521Z,-1.31
2023-03-12T04:42:52.848Z,-1.56
2023-03-12T04:45:21.420Z,-1.67
2023-03-12T04:47:49.608Z,-1.52
2023-03-12T04:50:18.694Z,-1.47
2023-03-12T04:52:46.927Z,-1.53
2023-03-12T04:55:15.406Z,-1.59
2023-03-12T04:57:44.972Z,-1.14
2023-03-12T05:00:14.348Z,-1.34
2023-03-12T05:02:44.961Z,-1.43
2023-03-12T05:05:13.785Z,-1.46
2023-03-12T05:07:42.250Z,-1.35
2023-03-12T05:10:11.803Z,-1.44
2023-03-12T05:12:40.067Z,-1.48
2023-03-12T05:15:11.029Z,-0.99
2023-03-12T05:17:39.247Z,-1.41
2023-03-12T05:20:08.448Z,-1.16
2023-03-12T05:22:36.623Z,-1.26
2023-03-12T05:25:06.071Z,-0.98
2023-03-12T05:27:34.724Z,-0.76
2023-03-12T05:30:04.579Z,-0.84
2023-03-12T05:32:34.367Z,-0.49
2023-03-12T05:35:02.877Z,-0.60
2023-03-12T05:37:31.090Z,-0.60
2023-03-12T05:40:00.717Z,-0.48
2023-03-12T05:42:28.919Z,-0.58
2023-03-12T05:44:59.475Z,-0.41
2023-03-12T05:47:27.672Z,-0.46
2023-03-12T05:49:57.633Z,-0.21
2023-03-12T05:52:25.835Z,-0.37
2023-03-12T05:54:54.674Z,-0.23
2023-03-12T05:57:23.198Z,-0.28
2023-03-12T05:59:51.717Z,-0.26
2023-03-12T06:02:20.193Z,-0.08
2023-03-12T06:04:48.887Z,0.04
2023-03-12T06:07:18.733Z,0.28
2023-03-12T06:09:47.291Z,0.01
2023-03-12T06:12:15.582Z,0.19
2023-03-12T06:14:44.241Z,0.27
2023-03-12T06:17:12.734Z,0.42
2023-03-12T06:19:41.187Z,0.60
2023-03-12T06:22:09.464Z,0.87
2023-03-12T06:24:42.328Z,1.40
2023-03-12T06:27:10.562Z,1.55
2023-03-12T06:29:39.103Z,1.70
2023-03-12T06:32:08.002Z,1.64
2023-03-12T06:34:36.663Z,1.59
2023-03-12T06:37:05.359Z,1.55
2023-03-12T06:39:33.923Z,1.57
2023-03-12T06:42:03.585Z,1.84
2023-03-12T06:44:32.420Z,1.87
2023-03-12T06:47:00.764Z,1.80
2023-03-12T06:49:32.310Z,2.34
2023-03-12T06:52:00.378Z,3.82
2023-03-12T06:54:29.001Z,2.97
2023-03-12T06:56:59.182Z,2.72
2023-03-12T06:59:29.461Z,2.88
2023-03-12T07:01:58.273Z,2.48
2023-03-12T07:04:26.873Z,2.26
2023-03-12T07:06:55.297Z,2.43
2023-03-12T07:09:25.855Z,2.52
2023-03-12T07:11:54.008Z,3.37
2023-03-12T07:14:24.808Z,4.31
2023-03-12T07:16:54.551Z,5.43
2023-03-12T07:19:23.116Z,5.53
2023-03-12T07:21:51.370Z,5.92
2023-03-12T07:24:22.489Z,6.88
2023-03-12T07:26:50.712Z,7.74
2023-03-12T07:29:22.124Z,8.73
2023-03-12T07:31:50.407Z,9.60
2023-03-12T07:34:20.593Z,10.92
2023-03-12T07:36:50.171Z,11.62
2023-03-12T07:39:19.411Z,12.45
2023-03-12T07:41:47.982Z,13.09
2023-03-12T07:44:19.494Z,13.65
2023-03-12T07:46:47.854Z,13.93
2023-03-12T07:49:17.569Z,14.60
2023-03-12T07:51:47.503Z,15.21
2023-03-12T07:54:18.495Z,14.93
2023-03-12T07:56:46.795Z,15.70
2023-03-12T07:59:15.536Z,16.29
2023-03-12T08:01:45.416Z,16.88
2023-03-12T08:04:17.899Z,17.54
2023-03-12T08:06:49.380Z,17.69
2023-03-12T08:09:33.762Z,17.91
2023-03-12T08:12:08.964Z,17.88
2023-03-12T08:14:52.886Z,19.17
2023-03-12T08:17:21.541Z,19.16
2023-03-12T08:19:50.170Z,19.41
2023-03-12T08:22:19.838Z,19.77
2023-03-12T08:24:48.866Z,19.43
2023-03-12T08:27:17.182Z,19.29
2023-03-12T08:29:45.709Z,19.66
2023-03-12T08:32:14.304Z,20.11
2023-03-12T08:34:42.950Z,20.82
2023-03-12T08:37:11.259Z,21.27
2023-03-12T08:39:41.609Z,21.21
2023-03-12T08:42:10.097Z,21.01
2023-03-12T08:44:38.859Z,21.22
2023-03-12T08:47:07.213Z,21.95
2023-03-12T08:49:35.894Z,22.39
2023-03-12T08:52:04.193Z,22.77
2023-03-12T08:54:32.722Z,23.50
2023-03-12T08:57:02.471Z,24.30
2023-03-12T08:59:30.994Z,24.05
2023-03-12T09:01:59.361Z,23.86
2023-03-12T09:04:28.096Z,24.19
2023-03-12T09:06:56.364Z,25.02
2023-03-12T09:09:24.816Z,25.17
2023-03-12T09:11:53.065Z,25.03
2023-03-12T09:15:00.993Z,25.83
2023-03-12T09:17:11.469Z,26.28
2023-03-12T09:19:40.917Z,27.64
2023-03-12T09:22:09.492Z,28.54
2023-03-12T09:24:38.003Z,28.46
2023-03-12T09:27:06.380Z,28.48
2023-03-12T09:29:43.786Z,28.68
2023-03-12T09:32:21.668Z,28.15
2023-03-12T09:34:50.394Z,28.22
2023-03-12T09:37:18.713Z,28.56
2023-03-12T09:39:47.266Z,27.61
2023-03-12T09:42:24.252Z,25.90
2023-03-12T09:44:56.287Z,23.47
2023-03-12T09:47:28.452Z,22.30
2023-03-12T09:50:00.434Z,22.15
2023-03-12T09:52:32.412Z,23.58
2023-03-12T09:55:05.140Z,24.24
2023-03-12T09:57:33.455Z,22.31
2023-03-12T10:00:06.825Z,21.56
2023-03-12T10:02:48.326Z,22.48
2023-03-12T10:05:20.184Z,24.49
2023-03-12T10:07:53.320Z,26.43
2023-03-12T10:10:32.281Z,27.68
2023-03-12T10:13:14.825Z,28.29
2023-03-12T10:15:52.579Z,28.91
2023-03-12T10:18:30.861Z,29.33
2023-03-12T10:21:07.661Z,28.75
2023-03-12T10:23:42.973Z,29.06
2023-03-12T10:26:15.233Z,29.12
2023-03-12T10:28:46.688Z,26.90
2023-03-12T10:31:21.292Z,23.83
2023-03-12T10:33:52.382Z,21.49
2023-03-12T10:36:21.374Z,21.37
2023-03-12T10:38:49.870Z,20.58
2023-03-12T10:41:21.023Z,22.63
2023-03-12T10:43:49.216Z,23.63
2023-03-12T10:47:02.504Z,23.58
2023-03-12T10:49:34.485Z,21.65
2023-03-12T10:52:07.021Z,20.23
2023-03-12T10:54:37.541Z,18.80
2023-03-12T10:57:06.917Z,17.62
2023-03-12T10:59:36.766Z,16.64
2023-03-12T11:02:32.593Z,16.53
2023-03-12T11:05:03.279Z,15.98
2023-03-12T11:07:33.065Z,16.77
2023-03-12T11:10:15.771Z,18.01
2023-03-12T11:12:58.427Z,16.98
2023-03-12T11:15:29.282Z,16.27
2023-03-12T11:18:29.965Z,16.76
2023-03-12T11:21:14.536Z,18.47
2023-03-12T11:23:45.352Z,20.00
2023-03-12T11:26:15.955Z,19.64
2023-03-12T11:28:45.874Z,18.76
2023-03-12T11:31:20.688Z,18.60
2023-03-12T11:33:49.452Z,18.20
2023-03-12T11:36:27.440Z,17.28
2023-03-12T11:38:59.182Z,15.97
2023-03-12T11:41:43.221Z,15.16
2023-03-12T11:44:22.528Z,15.59
2023-03-12T11:47:01.210Z,16.42
2023-03-12T11:49:40.739Z,15.81
2023-03-12T11:52:15.348Z,15.24
2023-03-12T11:54:59.865Z,14.80
2023-03-12T11:57:36.322Z,14.10
2023-03-12T12:00:13.522Z,14.45
2023-03-12T12:02:56.520Z,15.15
2023-03-12T12:05:32.773Z,15.65
2023-03-12T12:08:11.925Z,15.19
2023-03-12T12:10:47.321Z,14.34
2023-03-12T12:13:20.412Z,13.53
2023-03-12T12:15:55.870Z,13.04
2023-03-12T12:18:43.038Z,12.67
2023-03-12T12:21:25.514Z,12.08
2023-03-12T12:23:59.821Z,11.82
2023-03-12T12:26:33.303Z,11.41
2023-03-12T12:29:16.196Z,11.46
2023-03-12T12:31:48.200Z,11.39
2023-03-12T12:34:34.194Z,11.49
2023-03-12T12:37:18.476Z,11.34
2023-03-12T12:39:53.217Z,10.97
2023-03-12T12:42:26.129Z,10.78
2023-03-12T12:44:55.425Z,10.50
2023-03-12T12:47:33.447Z,10.61
2023-03-12T12:50:02.058Z,10.24
2023-03-12T12:52:30.866Z,10.51
2023-03-12T12:55:06.781Z,11.18
2023-03-12T12:57:41.215Z,11.79
2023-03-12T13:00:16.867Z,12.14
2023-03-12T13:02:47.998Z,12.28
2023-03-12T13:05:21.983Z,12.30
2023-03-12T13:07:50.646Z,11.62
2023-03-12T13:10:48.765Z,11.83
2023-03-12T13:13:27.468Z,10.93
2023-03-12T13:16:21.446Z,11.26
2023-03-12T13:19:00.383Z,11.20
2023-03-12T13:21:36.026Z,11.22
2023-03-12T13:24:18.278Z,11.25
2023-03-12T13:26:59.024Z,11.37
2023-03-12T13:29:39.064Z,11.60
2023-03-12T13:32:10.584Z,11.52
2023-03-12T13:34:48.281Z,11.53
2023-03-12T13:37:22.031Z,11.18
2023-03-12T13:39:50.669Z,10.67
2023-03-12T13:42:38.474Z,10.83
2023-03-12T13:45:28.779Z,10.65
2023-03-12T13:48:00.779Z,10.34
2023-03-12T13:50:31.209Z,10.47
2023-03-12T13:53:04.925Z,10.61
2023-03-12T13:55:35.033Z,10.55
2023-03-12T13:58:08.780Z,10.60
2023-03-12T14:00:40.609Z,10.44
2023-03-12T14:03:14.120Z,10.44
2023-03-12T14:05:49.840Z,10.04
2023-03-12T14:08:48.930Z,10.02
2023-03-12T14:11:30.696Z,9.88
2023-03-12T14:14:16.652Z,10.06
2023-03-12T14:16:49.503Z,9.40
2023-03-12T14:19:24.290Z,9.49
2023-03-12T14:21:53.232Z,9.05
2023-03-12T14:24:26.932Z,9.00
2023-03-12T14:26:56.696Z,9.07
2023-03-12T14:29:29.341Z,9.39
2023-03-12T14:32:02.562Z,9.48
2023-03-12T14:34:33.446Z,9.19
2023-03-12T14:37:05.998Z,9.09
2023-03-12T14:39:36.713Z,9.19
2023-03-12T14:42:08.027Z,9.17
2023-03-12T14:44:37.824Z,9.29
2023-03-12T14:47:11.670Z,9.32
2023-03-12T14:49:41.777Z,9.05
2023-03-12T14:52:12.788Z,9.01
2023-03-12T14:54:41.324Z,8.73
2023-03-12T14:57:15.615Z,9.03
2023-03-12T14:59:54.013Z,9.05
2023-03-12T15:02:24.826Z,8.80
2023-03-12T15:04:56.483Z,8.75
2023-03-12T15:07:29.632Z,8.74
2023-03-12T15:09:57.943Z,8.02
2023-03-12T15:12:28.047Z,8.18
2023-03-12T15:15:02.157Z,8.16
2023-03-12T15:17:33.526Z,8.07
2023-03-12T15:20:03.375Z,7.85
2023-03-12T15:22:32.246Z,7.52
2023-03-12T15:25:04.072Z,7.84
2023-03-12T15:27:34.209Z,7.61
2023-03-12T15:30:03.035Z,7.48
2023-03-12T15:32:33.084Z,7.59
2023-03-12T15:35:14.300Z,7.61
2023-03-12T15:37:42.999Z,7.94
2023-03-12T15:40:21.489Z,7.59
2023-03-12T15:42:50.317Z,7.20
2023-03-12T15:45:21.516Z,7.08
2023-03-12T15:47:52.681Z,7.03
2023-03-12T15:50:23.204Z,6.98
2023-03-12T15:53:03.174Z,7.07
2023-03-12T15:55:32.658Z,6.69
2023-03-12T15:58:01.797Z,6.60
2023-03-12T16:00:31.984Z,6.46
2023-03-12T16:03:04.656Z,6.60
2023-03-12T16:05:34.588Z,6.34
2023-03-12T16:08:07.315Z,6.14
2023-03-12T16:10:38.861Z,6.36
2023-03-12T16:13:07.453Z,5.80
2023-03-12T16:15:38.888Z,6.11
2023-03-12T16:18:13.470Z,5.95
2023-03-12T16:20:41.876Z,5.72
2023-03-12T16:23:10.617Z,5.72
2023-03-12T16:25:39.262Z,5.61
2023-03-12T16:28:08.024Z,5.62
2023-03-12T16:30:37.944Z,5.84
2023-03-12T16:33:09.451Z,5.86
2023-03-12T16:35:38.067Z,6.35
2023-03-12T16:38:07.272Z,5.58
2023-03-12T16:40:37.079Z,5.73
2023-03-12T16:43:07.537Z,5.77
2023-03-12T16:45:37.669Z,5.86
2023-03-12T16:48:08.737Z,5.85
2023-03-12T16:50:36.951Z,5.67
2023-03-12T16:53:06.020Z,5.73
2023-03-12T16:55:46.168Z,6.29
2023-03-12T16:58:15.457Z,5.96
2023-03-12T17:00:43.880Z,5.78
2023-03-12T17:03:20.127Z,6.24
2023-03-12T17:05:48.648Z,5.91
2023-03-12T17:08:17.585Z,5.83
2023-03-12T17:10:45.973Z,5.75
2023-03-12T17:13:20.210Z,6.13
2023-03-12T17:15:49.009Z,5.92
2023-03-12T17:18:18.991Z,5.89
2023-03-12T17:20:48.007Z,5.74
2023-03-12T17:23:16.753Z,5.62
2023-03-12T17:25:45.391Z,5.65
2023-03-12T17:28:15.490Z,5.64
2023-03-12T17:30:44.737Z,5.60
2023-03-12T17:33:14.981Z,5.58
2023-03-12T17:35:44.910Z,5.63
2023-03-12T17:38:14.240Z,5.48
2023-03-12T17:40:43.080Z,5.45
2023-03-12T17:43:11.826Z,5.29
2023-03-12T17:45:40.107Z,5.40
2023-03-12T17:48:08.923Z,5.31
2023-03-12T17:50:37.416Z,5.33
2023-03-12T17:53:07.633Z,5.60
2023-03-12T17:55:36.626Z,5.45
2023-03-12T17:58:06.203Z,5.31
2023-03-12T18:00:34.713Z,5.31
2023-03-12T18:03:03.616Z,5.38
2023-03-12T18:05:31.907Z,5.24
2023-03-12T18:08:00.621Z,5.11
2023-03-12T18:10:30.355Z,5.37
2023-03-12T18:12:59.013Z,5.18
2023-03-12T18:15:27.323Z,5.13
2023-03-12T18:17:56.984Z,5.15
2023-03-12T18:20:37.475Z,4.95
2023-03-12T18:23:07.233Z,5.09
2023-03-12T18:25:38.611Z,5.50
2023-03-12T18:28:07.392Z,5.18
2023-03-12T18:30:35.925Z,5.22
2023-03-12T18:33:04.586Z,5.09
2023-03-12T18:35:32.994Z,4.97
2023-03-12T18:38:01.601Z,5.19
2023-03-12T18:40:32.924Z,5.40
2023-03-12T18:43:03.143Z,5.52
2023-03-12T18:45:31.824Z,5.27
2023-03-12T18:48:00.395Z,5.17
2023-03-12T18:50:28.717Z,5.17
2023-03-12T18:52:57.352Z,5.10
2023-03-12T18:55:25.711Z,5.09
2023-03-12T18:57:54.421Z,5.03
2023-03-12T19:00:24.910Z,5.24
2023-03-12T19:02:54.039Z,4.94
2023-03-12T19:05:22.518Z,4.80
2023-03-12T19:07:51.463Z,4.73
2023-03-12T19:10:19.887Z,4.85
2023-03-12T19:12:53.149Z,4.89
2023-03-12T19:15:24.570Z,5.17
2023-03-12T19:17:54.347Z,5.03
2023-03-12T19:20:23.063Z,4.98
2023-03-12T19:22:51.708Z,4.93
2023-03-12T19:25:20.608Z,4.92
2023-03-12T19:27:49.805Z,5.13
2023-03-12T19:30:18.336Z,4.99
2023-03-12T19:32:48.340Z,5.15
2023-03-12T19:35:16.920Z,5.15
2023-03-12T19:37:45.694Z,5.15
2023-03-12T19:40:14.856Z,5.26
2023-03-12T19:42:43.489Z,5.08
2023-03-12T19:45:13.961Z,5.34
2023-03-12T19:47:42.582Z,5.21
2023-03-12T19:50:13.340Z,5.57
2023-03-12T19:52:41.890Z,5.12
2023-03-12T19:55:12.036Z,5.15
2023-03-12T19:57:41.229Z,5.18
2023-03-12T20:00:12.433Z,5.31
2023-03-12T20:02:41.536Z,4.98
2023-03-12T20:05:12.282Z,5.14
2023-03-12T20:07:41.016Z,5.10
2023-03-12T20:10:11.196Z,5.23
2023-03-12T20:12:40.173Z,5.15
2023-03-12T20:15:09.407Z,5.25
2023-03-12T20:17:38.324Z,5.25
2023-03-12T20:20:09.225Z,5.21
2023-03-12T20:22:39.288Z,5.35
2023-03-12T20:25:10.007Z,5.19
2023-03-12T20:27:38.758Z,5.07
2023-03-12T20:30:08.460Z,4.99
2023-03-12T20:32:37.329Z,4.85
2023-03-12T20:35:06.133Z,4.93
2023-03-12T20:37:34.780Z,4.92
2023-03-12T20:40:05.328Z,5.14
2023-03-12T20:42:34.114Z,4.78
2023-03-12T20:45:02.369Z,4.77
2023-03-12T20:47:30.949Z,4.76
2023-03-12T20:49:59.564Z,4.75
2023-03-12T20:52:28.370Z,4.82
2023-03-12T20:54:56.772Z,4.94
2023-03-12T20:57:26.778Z,5.32
2023-03-12T20:59:55.098Z,5.05
2023-03-12T21:02:24.040Z,5.03
2023-03-12T21:04:54.192Z,5.14
2023-03-12T21:07:22.667Z,5.06
2023-03-12T21:09:50.899Z,5.11
2023-03-12T21:12:19.491Z,5.11
2023-03-12T21:14:49.240Z,5.41
2023-03-12T21:17:17.914Z,5.10
2023-03-12T21:19:46.587Z,5.03
2023-03-12T21:22:15.712Z,5.15
2023-03-12T21:24:43.973Z,5.20
2023-03-12T21:27:13.130Z,5.31
2023-03-12T21:29:41.485Z,5.39
2023-03-12T21:32:11.588Z,5.57
2023-03-12T21:34:39.949Z,5.38
2023-03-12T21:37:08.620Z,5.44
2023-03-12T21:39:36.866Z,5.48
2023-03-12T21:42:05.636Z,5.59
2023-03-12T21:44:35.924Z,5.79
2023-03-12T21:47:05.179Z,5.69
2023-03-12T21:49:35.852Z,5.85
2023-03-12T21:52:05.357Z,5.67
2023-03-12T21:54:34.361Z,5.66
2023-03-12T21:57:03.511Z,5.78
2023-03-12T21:59:32.489Z,5.84
2023-03-12T22:02:00.997Z,5.73
2023-03-12T22:04:29.656Z,6.02
2023-03-12T22:07:00.073Z,6.19
2023-03-12T22:09:28.572Z,5.84
2023-03-12T22:11:57.074Z,5.94
2023-03-12T22:14:25.615Z,6.06
2023-03-12T22:16:54.758Z,6.03
2023-03-12T22:19:24.168Z,5.95
2023-03-12T22:21:52.810Z,6.04
2023-03-12T22:24:22.421Z,6.18
2023-03-12T22:26:51.117Z,6.00
2023-03-12T22:29:19.256Z,5.91
2023-03-12T22:31:48.172Z,6.06
2023-03-12T22:34:16.615Z,6.01
2023-03-12T22:36:45.381Z,5.99
2023-03-12T22:39:13.640Z,5.96
2023-03-12T22:41:43.658Z,6.04
2023-03-12T22:44:12.053Z,5.84
2023-03-12T22:46:40.597Z,5.89
2023-03-12T22:49:08.967Z,5.95
2023-03-12T22:51:37.652Z,5.85
2023-03-12T22:54:06.108Z,5.78
2023-03-12T22:56:34.969Z,5.89
2023-03-12T22:59:04.678Z,6.10
2023-03-12T23:01:33.290Z,5.86
2023-03-12T23:04:04.090Z,6.06
2023-03-12T23:06:32.650Z,6.73
2023-03-12T23:09:01.184Z,6.15
2023-03-12T23:11:29.893Z,6.20
2023-03-12T23:13:58.568Z,6.08
2023-03-12T23:16:28.861Z,6.25
2023-03-12T23:18:57.489Z,6.18
2023-03-12T23:21:26.317Z,6.23
2023-03-12T23:23:55.058Z,6.36
2023-03-12T23:26:26.156Z,6.18
2023-03-12T23:28:55.027Z,6.41
2023-03-12T23:31:24.184Z,6.55
2023-03-12T23:33:53.916Z,6.54
2023-03-12T23:36:24.083Z,6.70
2023-03-12T23:38:52.318Z,6.40
2023-03-12T23:41:22.438Z,6.45
2023-03-12T23:43:50.770Z,6.43
2023-03-12T23:46:20.174Z,6.44
2023-03-12T23:48:48.937Z,6.30
2023-03-12T23:51:20.380Z,6.81
2023-03-12T23:53:50.217Z,6.70
2023-03-12T23:56:20.287Z,6.85
2023-03-12T23:58:49.202Z,6.68
